createdAt,value
2022-09-12T00:01:10.871Z,95208.88
2022-09-12T00:03:39.339Z,95209.00
2022-09-12T00:06:22.644Z,95195.41
2022-09-12T00:08:50.961Z,95212.06
2022-09-12T00:11:17.911Z,95207.91
2022-09-12T00:13:44.487Z,95213.84
2022-09-12T00:16:16.408Z,95207.69
2022-09-12T00:18:43.458Z,95207.31
2022-09-12T00:21:10.078Z,95204.56
2022-09-12T00:23:36.713Z,95201.97
2022-09-12T00:26:06.379Z,95207.44
2022-09-12T00:28:38.312Z,95204.84
2022-09-12T00:31:09.057Z,95205.13
2022-09-12T00:33:36.576Z,95205.63
2022-09-12T00:36:09.260Z,95205.28
2022-09-12T00:38:36.220Z,95201.25
2022-09-12T00:41:02.806Z,95197.81
2022-09-12T00:43:39.786Z,95194.16
2022-09-12T00:46:23.293Z,95198.53
2022-09-12T00:48:58.930Z,95197.72
2022-09-12T00:51:27.134Z,95197.94
2022-09-12T00:53:55.994Z,95190.03
2022-09-12T00:56:26.784Z,95189.59
2022-09-12T00:59:15.098Z,95189.22
2022-09-12T01:01:44.648Z,95185.78
2022-09-12T01:04:13.464Z,95173.84
2022-09-12T01:06:42.910Z,95180.78
2022-09-12T01:09:15.720Z,95171.00
2022-09-12T01:11:44.044Z,95174.94
2022-09-12T01:14:10.986Z,95173.72
2022-09-12T01:16:38.861Z,95169.38
2022-09-12T01:19:17.611Z,95170.56
2022-09-12T01:22:11.515Z,95172.25
2022-09-12T01:24:38.029Z,95174.63
2022-09-12T01:27:32.501Z,95171.91
2022-09-12T01:30:17.728Z,95171.34
2022-09-12T01:32:56.168Z,95167.56
2022-09-12T01:35:22.748Z,95164.91
2022-09-12T01:38:23.575Z,95164.34
2022-09-12T01:41:15.022Z,95163.13
2022-09-12T01:44:00.636Z,95161.13
2022-09-12T01:46:50.803Z,95160.22
2022-09-12T01:49:23.131Z,95158.25
2022-09-12T01:51:55.320Z,95154.66
2022-09-12T01:54:46.799Z,95159.59
2022-09-12T01:57:22.320Z,95154.09
2022-09-12T01:59:57.126Z,95163.31
2022-09-12T02:02:51.019Z,95162.25
2022-09-12T02:05:20.976Z,95157.09
2022-09-12T02:07:53.621Z,95150.94
2022-09-12T02:10:32.931Z,95151.81
2022-09-12T02:13:16.920Z,95157.66
2022-09-12T02:15:49.348Z,95163.03
2022-09-12T02:18:19.790Z,95157.31
2022-09-12T02:20:49.444Z,95154.75
2022-09-12T02:23:26.193Z,95163.34
2022-09-12T02:25:57.463Z,95154.59
2022-09-12T02:28:33.962Z,95157.50
2022-09-12T02:31:40.442Z,95154.75
2022-09-12T02:34:32.220Z,95151.28
2022-09-12T02:37:01.516Z,95149.25
2022-09-12T02:39:30.796Z,95152.91
2022-09-12T02:42:01.023Z,95143.41
2022-09-12T02:44:30.731Z,95143.22
2022-09-12T02:47:05.858Z,95145.00
2022-09-12T02:49:32.992Z,95145.59
2022-09-12T02:52:02.022Z,95150.63
2022-09-12T02:54:31.051Z,95140.63
2022-09-12T02:56:57.837Z,95154.78
2022-09-12T02:59:25.892Z,95148.72
2022-09-12T03:02:10.438Z,95149.13
2022-09-12T03:05:14.240Z,95148.94
2022-09-12T03:08:09.161Z,95156.53
2022-09-12T03:10:41.609Z,95143.06
2022-09-12T03:13:20.264Z,95141.66
2022-09-12T03:16:09.833Z,95150.13
2022-09-12T03:18:56.175Z,95148.00
2022-09-12T03:21:37.979Z,95143.09
2022-09-12T03:24:47.727Z,95147.25
2022-09-12T03:27:30.070Z,95145.38
2022-09-12T03:29:58.340Z,95143.69
2022-09-12T03:32:54.188Z,95137.78
2022-09-12T03:35:24.104Z,95140.25
2022-09-12T03:37:52.320Z,95135.09
2022-09-12T03:40:19.466Z,95137.16
2022-09-12T03:42:46.081Z,95135.22
2022-09-12T03:45:12.749Z,95136.44
2022-09-12T03:47:40.501Z,95140.09
2022-09-12T03:50:07.542Z,95140.50
2022-09-12T03:52:34.491Z,95145.31
2022-09-12T03:55:01.221Z,95142.63
2022-09-12T03:57:28.163Z,95141.50
2022-09-12T03:59:54.736Z,95141.78
2022-09-12T04:02:21.548Z,95138.53
2022-09-12T04:04:48.161Z,95140.06
2022-09-12T04:07:15.797Z,95134.09
2022-09-12T04:09:42.396Z,95138.41
2022-09-12T04:12:08.978Z,95129.72
2022-09-12T04:14:35.568Z,95130.78
2022-09-12T04:17:02.356Z,95134.13
2022-09-12T04:19:29.011Z,95133.72
2022-09-12T04:21:55.610Z,95135.81
2022-09-12T04:24:22.187Z,95145.50
2022-09-12T04:26:48.873Z,95138.56
2022-09-12T04:29:15.508Z,95137.78
2022-09-12T04:31:42.292Z,95143.81
2022-09-12T04:34:09.461Z,95140.97
2022-09-12T04:36:36.498Z,95146.28
2022-09-12T04:39:06.368Z,95150.78
2022-09-12T04:41:35.968Z,95146.72
2022-09-12T04:44:10.418Z,95142.06
2022-09-12T04:46:40.530Z,95152.13
2022-09-12T04:49:07.888Z,95137.81
2022-09-12T04:51:36.890Z,95147.06
2022-09-12T04:54:06.644Z,95149.19
2022-09-12T04:56:38.019Z,95146.75
2022-09-12T04:59:05.328Z,95145.81
2022-09-12T05:01:31.938Z,95141.66
2022-09-12T05:03:59.826Z,95143.69
2022-09-12T05:06:32.390Z,95154.53
2022-09-12T05:09:00.368Z,95140.28
2022-09-12T05:11:46.919Z,95146.84
2022-09-12T05:14:16.882Z,95142.44
2022-09-12T05:16:47.212Z,95144.72
2022-09-12T05:19:15.820Z,95145.22
2022-09-12T05:21:42.440Z,95152.09
2022-09-12T05:24:10.904Z,95144.00
2022-09-12T05:26:37.498Z,95147.78
2022-09-12T05:29:05.226Z,95145.44
2022-09-12T05:31:31.877Z,95152.47
2022-09-12T05:33:58.439Z,95157.81
2022-09-12T05:36:28.587Z,95159.00
2022-09-12T05:38:56.578Z,95157.94
2022-09-12T05:41:25.907Z,95160.53
2022-09-12T05:43:54.956Z,95171.88
2022-09-12T05:46:24.536Z,95169.47
2022-09-12T05:48:55.691Z,95165.44
2022-09-12T05:51:26.568Z,95172.47
2022-09-12T05:53:59.296Z,95165.66
2022-09-12T05:56:28.371Z,95166.91
2022-09-12T05:58:56.306Z,95173.47
2022-09-12T06:01:23.852Z,95164.75
2022-09-12T06:03:52.778Z,95165.16
2022-09-12T06:06:22.586Z,95168.41
2022-09-12T06:08:52.726Z,95171.69
2022-09-12T06:11:22.184Z,95175.38
2022-09-12T06:13:49.512Z,95180.19
2022-09-12T06:16:19.192Z,95179.03
2022-09-12T06:18:58.509Z,95177.25
2022-09-12T06:21:26.777Z,95180.34
2022-09-12T06:23:55.116Z,95186.97
2022-09-12T06:26:22.872Z,95178.56
2022-09-12T06:28:50.351Z,95174.31
2022-09-12T06:31:22.057Z,95175.50
2022-09-12T06:33:51.286Z,95172.03
2022-09-12T06:36:26.904Z,95168.94
2022-09-12T06:38:55.895Z,95175.41
2022-09-12T06:41:24.152Z,95170.72
2022-09-12T06:43:51.200Z,95173.88
2022-09-12T06:46:17.822Z,95179.31
2022-09-12T06:48:44.835Z,95170.34
2022-09-12T06:51:14.819Z,95174.16
2022-09-12T06:53:42.882Z,95174.34
2022-09-12T06:56:12.658Z,95173.06
2022-09-12T06:58:39.823Z,95174.06
2022-09-12T07:01:07.925Z,95180.53
2022-09-12T07:03:35.200Z,95183.06
2022-09-12T07:06:07.264Z,95183.91
2022-09-12T07:08:35.488Z,95182.28
2022-09-12T07:11:13.434Z,95190.81
2022-09-12T07:13:41.822Z,95188.00
2022-09-12T07:16:09.214Z,95176.34
2022-09-12T07:18:37.166Z,95175.53
2022-09-12T07:21:11.044Z,95173.44
2022-09-12T07:23:37.793Z,95167.47
2022-09-12T07:26:04.802Z,95161.44
2022-09-12T07:28:33.266Z,95168.06
2022-09-12T07:31:11.254Z,95160.88
2022-09-12T07:33:38.773Z,95155.84
2022-09-12T07:36:14.848Z,95165.59
2022-09-12T07:38:42.627Z,95168.72
2022-09-12T07:41:19.847Z,95160.78
2022-09-12T07:43:46.960Z,95160.81
2022-09-12T07:46:14.888Z,95155.94
2022-09-12T07:48:41.547Z,95158.50
2022-09-12T07:51:10.412Z,95159.88
2022-09-12T07:53:41.771Z,95156.75
2022-09-12T07:56:10.827Z,95152.41
2022-09-12T07:58:39.699Z,95154.41
2022-09-12T08:01:08.788Z,95148.00
2022-09-12T08:03:36.476Z,95149.94
2022-09-12T08:06:12.671Z,95156.44
2022-09-12T08:08:39.981Z,95158.97
2022-09-12T08:11:12.414Z,95152.06
2022-09-12T08:13:41.941Z,95157.06
2022-09-12T08:16:13.656Z,95155.13
2022-09-12T08:18:41.170Z,95162.34
2022-09-12T08:21:19.944Z,95161.84
2022-09-12T08:23:47.986Z,95162.38
2022-09-12T08:26:15.117Z,95159.91
2022-09-12T08:28:46.432Z,95174.69
2022-09-12T08:31:18.386Z,95171.44
2022-09-12T08:33:45.284Z,95178.50
2022-09-12T08:36:13.097Z,95182.03
2022-09-12T08:38:45.175Z,95175.59
2022-09-12T08:41:21.213Z,95174.22
2022-09-12T08:43:53.229Z,95171.03
2022-09-12T08:46:35.521Z,95175.25
2022-09-12T08:49:05.367Z,95170.84
2022-09-12T08:51:35.087Z,95169.22
2022-09-12T08:54:11.185Z,95172.22
2022-09-12T08:56:39.061Z,95175.19
2022-09-12T08:59:05.656Z,95197.59
2022-09-12T09:01:44.506Z,95193.31
2022-09-12T09:04:42.839Z,95194.28
2022-09-12T09:07:24.657Z,95190.00
2022-09-12T09:10:18.738Z,95192.22
2022-09-12T09:13:00.297Z,95186.34
2022-09-12T09:15:35.823Z,95187.91
2022-09-12T09:18:21.854Z,95188.34
2022-09-12T09:20:59.881Z,95190.94
2022-09-12T09:23:42.713Z,95179.72
2022-09-12T09:26:23.299Z,95179.78
2022-09-12T09:28:55.150Z,95182.47
2022-09-12T09:31:25.402Z,95179.91
2022-09-12T09:33:54.585Z,95168.91
2022-09-12T09:36:33.726Z,95171.13
2022-09-12T09:39:31.303Z,95176.81
2022-09-12T09:42:18.076Z,95172.94
2022-09-12T09:44:47.795Z,95186.75
2022-09-12T09:47:15.740Z,95179.31
2022-09-12T09:49:42.632Z,95178.56
2022-09-12T09:52:15.276Z,95177.50
2022-09-12T09:54:51.418Z,95171.59
2022-09-12T09:57:40.055Z,95177.06
2022-09-12T10:00:23.385Z,95173.13
2022-09-12T10:03:13.717Z,95174.06
2022-09-12T10:05:56.771Z,95172.13
2022-09-12T10:08:35.678Z,95166.78
2022-09-12T10:11:18.044Z,95173.53
2022-09-12T10:13:50.650Z,95165.56
2022-09-12T10:16:24.447Z,95157.03
2022-09-12T10:18:53.581Z,95157.53
2022-09-12T10:21:27.738Z,95151.72
2022-09-12T10:24:16.140Z,95146.22
2022-09-12T10:26:55.950Z,95148.69
2022-09-12T10:29:32.948Z,95138.25
2022-09-12T10:32:03.570Z,95144.06
2022-09-12T10:34:44.001Z,95145.53
2022-09-12T10:37:34.875Z,95148.44
2022-09-12T10:40:04.206Z,95145.94
2022-09-12T10:42:52.796Z,95148.19
2022-09-12T10:45:27.650Z,95153.81
2022-09-12T10:47:56.495Z,95146.63
2022-09-12T10:50:39.713Z,95144.59
2022-09-12T10:53:21.992Z,95142.06
2022-09-12T10:55:51.355Z,95144.06
2022-09-12T10:58:48.031Z,95141.44
2022-09-12T11:01:23.611Z,95138.00
2022-09-12T11:04:24.616Z,95134.44
2022-09-12T11:07:25.360Z,95132.19
2022-09-12T11:10:13.882Z,95133.06
2022-09-12T11:12:48.278Z,95135.34
2022-09-12T11:15:23.770Z,95129.97
2022-09-12T11:18:15.640Z,95125.72
2022-09-12T11:21:14.067Z,95129.28
2022-09-12T11:24:19.853Z,95129.56
2022-09-12T11:26:58.905Z,95127.28
2022-09-12T11:29:57.110Z,95125.47
2022-09-12T11:32:43.193Z,95120.22
2022-09-12T11:35:29.663Z,95119.25
2022-09-12T11:38:14.510Z,95112.19
2022-09-12T11:40:59.677Z,95112.19
2022-09-12T11:43:48.682Z,95112.97
2022-09-12T11:46:41.596Z,95104.06
2022-09-12T11:49:11.158Z,95103.09
2022-09-12T11:52:00.021Z,95099.75
2022-09-12T11:54:57.918Z,95112.28
2022-09-12T11:57:42.690Z,95104.41
2022-09-12T12:00:34.403Z,95106.53
2022-09-12T12:03:15.186Z,95103.84
2022-09-12T12:05:51.180Z,95106.75
2022-09-12T12:08:19.981Z,95095.63
2022-09-12T12:11:01.607Z,95100.31
2022-09-12T12:13:36.869Z,95095.03
2022-09-12T12:16:23.294Z,95092.63
2022-09-12T12:18:59.740Z,95088.56
2022-09-12T12:21:29.746Z,95094.25
2022-09-12T12:24:14.673Z,95088.06
2022-09-12T12:26:41.351Z,95076.66
2022-09-12T12:29:42.893Z,95079.59
2022-09-12T12:32:10.400Z,95078.31
2022-09-12T12:34:43.088Z,95069.34
2022-09-12T12:37:18.815Z,95064.25
2022-09-12T12:39:45.392Z,95060.38
2022-09-12T12:42:34.787Z,95068.81
2022-09-12T12:45:26.626Z,95059.56
2022-09-12T12:48:11.632Z,95061.94
2022-09-12T12:50:38.916Z,95063.34
2022-09-12T12:53:25.950Z,95051.19
2022-09-12T12:55:57.460Z,95046.69
2022-09-12T12:58:37.977Z,95052.69
2022-09-12T13:01:23.005Z,95049.69
2022-09-12T13:03:56.539Z,95053.88
2022-09-12T13:06:36.001Z,95046.28
2022-09-12T13:09:17.466Z,95045.06
2022-09-12T13:11:44.624Z,95046.28
2022-09-12T13:14:43.322Z,95037.72
2022-09-12T13:17:27.565Z,95031.72
2022-09-12T13:20:27.821Z,95041.41
2022-09-12T13:22:55.340Z,95028.91
2022-09-12T13:25:32.190Z,95027.91
2022-09-12T13:27:59.839Z,95029.06
2022-09-12T13:30:28.697Z,95025.03
2022-09-12T13:33:02.406Z,95023.63
2022-09-12T13:35:55.491Z,95022.44
2022-09-12T13:38:35.273Z,95020.22
2022-09-12T13:41:17.450Z,95025.25
2022-09-12T13:43:47.573Z,95023.78
2022-09-12T13:46:22.780Z,95018.97
2022-09-12T13:48:49.596Z,95018.34
2022-09-12T13:51:26.181Z,95006.63
2022-09-12T13:53:59.594Z,95003.28
2022-09-12T13:56:26.802Z,95009.06
2022-09-12T13:58:59.741Z,94988.84
2022-09-12T14:01:45.098Z,94996.66
2022-09-12T14:04:17.144Z,94986.13
2022-09-12T14:06:49.678Z,94986.16
2022-09-12T14:09:32.025Z,94990.22
2022-09-12T14:11:59.347Z,94983.69
2022-09-12T14:14:35.966Z,94983.28
2022-09-12T14:17:18.901Z,94979.81
2022-09-12T14:19:47.662Z,94978.56
2022-09-12T14:22:14.921Z,94970.53
2022-09-12T14:24:42.045Z,94974.69
2022-09-12T14:27:10.705Z,94973.19
2022-09-12T14:29:37.738Z,94974.88
2022-09-12T14:32:05.132Z,94963.84
2022-09-12T14:34:31.739Z,94960.34
2022-09-12T14:36:59.255Z,94966.00
2022-09-12T14:39:28.930Z,94971.22
2022-09-12T14:42:24.747Z,94958.28
2022-09-12T14:45:14.073Z,94956.88
2022-09-12T14:47:43.658Z,94954.56
2022-09-12T14:50:19.879Z,94953.16
2022-09-12T14:52:46.577Z,94961.78
2022-09-12T14:55:15.915Z,94957.59
2022-09-12T14:57:43.414Z,94955.03
2022-09-12T15:00:12.857Z,94951.75
2022-09-12T15:02:41.380Z,94952.19
2022-09-12T15:05:07.943Z,94947.88
2022-09-12T15:07:39.677Z,94948.03
2022-09-12T15:10:19.575Z,94956.75
2022-09-12T15:12:46.258Z,94953.09
2022-09-12T15:15:21.208Z,94950.81
2022-09-12T15:17:47.844Z,94947.25
2022-09-12T15:20:14.718Z,94955.59
2022-09-12T15:22:42.207Z,94948.31
2022-09-12T15:25:12.305Z,94944.16
2022-09-12T15:27:39.263Z,94944.31
2022-09-12T15:30:06.908Z,94949.50
2022-09-12T15:32:34.498Z,94948.94
2022-09-12T15:35:01.104Z,94951.69
2022-09-12T15:37:27.929Z,94942.63
2022-09-12T15:39:54.606Z,94940.72
2022-09-12T15:42:29.094Z,94947.19
2022-09-12T15:44:58.453Z,94940.78
2022-09-12T15:47:28.860Z,94930.72
2022-09-12T15:49:55.452Z,94932.75
2022-09-12T15:52:23.277Z,94931.69
2022-09-12T15:54:49.976Z,94929.13
2022-09-12T15:57:16.699Z,94931.84
2022-09-12T15:59:43.331Z,94935.34
2022-09-12T16:02:11.647Z,94933.81
2022-09-12T16:04:38.277Z,94930.94
2022-09-12T16:07:07.088Z,94937.94
2022-09-12T16:09:33.703Z,94927.72
2022-09-12T16:12:00.418Z,94930.25
2022-09-12T16:14:27.034Z,94929.00
2022-09-12T16:16:54.488Z,94915.00
2022-09-12T16:19:21.144Z,94921.69
2022-09-12T16:21:48.191Z,94918.59
2022-09-12T16:24:15.150Z,94915.16
2022-09-12T16:26:41.758Z,94911.78
2022-09-12T16:29:14.921Z,94912.44
2022-09-12T16:31:41.561Z,94908.31
2022-09-12T16:34:08.432Z,94904.47
2022-09-12T16:36:35.098Z,94905.09
2022-09-12T16:39:01.771Z,94902.16
2022-09-12T16:41:28.418Z,94898.75
2022-09-12T16:43:55.689Z,94894.66
2022-09-12T16:46:25.667Z,94891.31
2022-09-12T16:48:54.253Z,94894.19
2022-09-12T16:51:25.863Z,94886.34
2022-09-12T16:53:53.854Z,94893.69
2022-09-12T16:56:22.730Z,94891.66
2022-09-12T16:58:52.158Z,94887.34
2022-09-12T17:01:21.662Z,94886.25
2022-09-12T17:03:52.166Z,94884.66
2022-09-12T17:06:19.281Z,94884.28
2022-09-12T17:08:49.360Z,94877.94
2022-09-12T17:11:19.421Z,94883.53
2022-09-12T17:14:09.974Z,94880.81
2022-09-12T17:16:42.495Z,94873.69
2022-09-12T17:19:16.031Z,94884.16
2022-09-12T17:21:43.541Z,94885.09
2022-09-12T17:24:11.497Z,94886.22
2022-09-12T17:26:38.185Z,94885.56
2022-09-12T17:29:04.876Z,94885.41
2022-09-12T17:31:31.827Z,94884.91
2022-09-12T17:34:01.241Z,94884.44
2022-09-12T17:36:28.853Z,94886.03
2022-09-12T17:38:55.511Z,94880.13
2022-09-12T17:41:24.741Z,94886.72
2022-09-12T17:43:53.915Z,94884.19
2022-09-12T17:46:21.034Z,94903.16
2022-09-12T17:48:53.003Z,94904.72
2022-09-12T17:51:21.256Z,94897.81
2022-09-12T17:53:48.411Z,94904.41
2022-09-12T17:56:15.142Z,94899.41
2022-09-12T17:58:41.764Z,94891.84
2022-09-12T18:01:14.208Z,94892.28
2022-09-12T18:03:40.830Z,94894.34
2022-09-12T18:06:07.586Z,94891.97
2022-09-12T18:08:34.296Z,94890.06
2022-09-12T18:11:07.370Z,94888.41
2022-09-12T18:13:34.365Z,94891.56
2022-09-12T18:16:06.321Z,94895.50
2022-09-12T18:18:34.979Z,94894.16
2022-09-12T18:21:03.144Z,94899.66
2022-09-12T18:23:30.008Z,94901.91
2022-09-12T18:25:58.587Z,94902.72
2022-09-12T18:28:28.399Z,94918.44
2022-09-12T18:30:55.088Z,94908.13
2022-09-12T18:33:24.087Z,94912.31
2022-09-12T18:35:51.521Z,94906.69
2022-09-12T18:38:18.255Z,94904.00
2022-09-12T18:40:44.989Z,94912.88
2022-09-12T18:43:11.705Z,94915.69
2022-09-12T18:45:38.307Z,94919.25
2022-09-12T18:48:04.977Z,94916.09
2022-09-12T18:50:32.947Z,94923.84
2022-09-12T18:52:59.984Z,94925.56
2022-09-12T18:55:26.817Z,94942.16
2022-09-12T18:57:55.298Z,94939.47
2022-09-12T19:00:21.989Z,94933.31
2022-09-12T19:02:48.604Z,94928.19
2022-09-12T19:05:15.246Z,94936.22
2022-09-12T19:07:41.876Z,94935.50
2022-09-12T19:10:08.786Z,94930.63
2022-09-12T19:12:35.561Z,94935.22
2022-09-12T19:15:03.302Z,94944.50
2022-09-12T19:17:30.591Z,94931.91
2022-09-12T19:19:57.213Z,94930.81
2022-09-12T19:22:23.859Z,94938.56
2022-09-12T19:24:50.533Z,94937.19
2022-09-12T19:27:17.161Z,94936.97
2022-09-12T19:29:43.796Z,94939.91
2022-09-12T19:32:10.416Z,94946.44
2022-09-12T19:34:37.062Z,94941.84
2022-09-12T19:37:09.053Z,94944.22
2022-09-12T19:39:35.713Z,94943.47
2022-09-12T19:45:11.013Z,94948.59
2022-09-12T19:47:45.017Z,94941.44
2022-09-12T19:50:11.599Z,94940.88
2022-09-12T19:52:38.197Z,94941.31
2022-09-12T19:55:05.120Z,94935.56
2022-09-12T19:57:31.702Z,94936.38
2022-09-12T19:59:58.284Z,94940.94
2022-09-12T20:02:24.983Z,94934.94
2022-09-12T20:04:51.657Z,94945.41
2022-09-12T20:07:18.299Z,94947.31
2022-09-12T20:09:44.919Z,94952.81
2022-09-12T20:12:11.589Z,94952.16
2022-09-12T20:14:38.193Z,94957.56
2022-09-12T20:17:04.868Z,94955.84
2022-09-12T20:19:31.487Z,94958.78
2022-09-12T20:21:58.080Z,94956.03
2022-09-12T20:24:24.904Z,94959.47
2022-09-12T20:26:51.903Z,94959.47
2022-09-12T20:29:18.536Z,94956.00
2022-09-12T20:31:45.209Z,94952.84
2022-09-12T20:34:17.661Z,94959.47
2022-09-12T20:36:45.371Z,94948.84
2022-09-12T20:39:15.307Z,94947.16
2022-09-12T20:41:42.124Z,94946.41
2022-09-12T20:44:09.094Z,94944.75
2022-09-12T20:46:36.228Z,94940.25
2022-09-12T20:49:04.061Z,94932.91
2022-09-12T20:51:33.637Z,94928.31
2022-09-12T20:54:03.352Z,94927.91
2022-09-12T20:56:32.276Z,94935.78
2022-09-12T20:58:59.720Z,94938.31
2022-09-12T21:01:28.254Z,94934.13
2022-09-12T21:03:54.943Z,94933.03
2022-09-12T21:06:21.601Z,94935.91
2022-09-12T21:08:49.739Z,94939.00
2022-09-12T21:11:18.167Z,94942.97
2022-09-12T21:13:45.027Z,94938.91
2022-09-12T21:16:17.844Z,94934.81
2022-09-12T21:18:45.289Z,94941.47
2022-09-12T21:21:14.034Z,94948.53
2022-09-12T21:23:41.458Z,94948.88
2022-09-12T21:26:08.960Z,94948.81
2022-09-12T21:28:35.799Z,94949.59
2022-09-12T21:31:02.555Z,94950.28
2022-09-12T21:33:29.285Z,94947.94
2022-09-12T21:36:02.015Z,94939.00
2022-09-12T21:38:28.610Z,94943.38
2022-09-12T21:41:05.718Z,94940.03
2022-09-12T21:43:32.589Z,94935.00
2022-09-12T21:46:00.467Z,94938.47
2022-09-12T21:48:28.016Z,94934.38
2022-09-12T21:50:54.963Z,94939.09
2022-09-12T21:53:22.181Z,94941.34
2022-09-12T21:55:49.251Z,94948.88
2022-09-12T21:58:15.907Z,94944.50
2022-09-12T22:00:43.666Z,94937.63
2022-09-12T22:03:11.396Z,94940.72
2022-09-12T22:05:38.786Z,94943.03
2022-09-12T22:08:06.964Z,94947.28
2022-09-12T22:10:34.345Z,94948.63
2022-09-12T22:13:02.162Z,94954.38
2022-09-12T22:15:40.686Z,94952.16
2022-09-12T22:18:07.726Z,94948.59
2022-09-12T22:20:37.215Z,94947.22
2022-09-12T22:23:03.812Z,94946.91
2022-09-12T22:25:30.873Z,94940.94
2022-09-12T22:27:57.473Z,94943.03
2022-09-12T22:30:24.121Z,94938.28
2022-09-12T22:32:50.820Z,94932.94
2022-09-12T22:35:18.486Z,94925.47
2022-09-12T22:37:48.121Z,94923.88
2022-09-12T22:40:14.973Z,94923.44
2022-09-12T22:42:41.912Z,94929.41
2022-09-12T22:45:09.059Z,94937.69
2022-09-12T22:47:35.711Z,94920.31
2022-09-12T22:50:02.653Z,94924.91
2022-09-12T22:52:29.312Z,94919.66
2022-09-12T22:54:55.999Z,94906.94
2022-09-12T22:57:22.729Z,94923.34
2022-09-12T22:59:49.328Z,94921.00
2022-09-12T23:02:15.927Z,94922.78
2022-09-12T23:04:42.576Z,94928.31
2022-09-12T23:07:09.197Z,94926.72
2022-09-12T23:09:37.457Z,94926.47
2022-09-12T23:12:04.318Z,94924.59
2022-09-12T23:14:30.981Z,94914.44
2022-09-12T23:16:57.727Z,94914.09
2022-09-12T23:19:24.352Z,94910.59
2022-09-12T23:21:51.087Z,94913.25
2022-09-12T23:24:17.953Z,94922.13
2022-09-12T23:26:44.561Z,94925.81
2022-09-12T23:29:11.221Z,94926.94
2022-09-12T23:31:37.903Z,94930.91
2022-09-12T23:34:06.132Z,94940.03
2022-09-12T23:36:34.149Z,94939.22
2022-09-12T23:39:01.248Z,94940.69
2022-09-12T23:41:28.178Z,94943.19
2022-09-12T23:43:54.881Z,94952.22
2022-09-12T23:46:21.827Z,94948.69
2022-09-12T23:48:51.843Z,94958.19
2022-09-12T23:51:18.686Z,94960.84
2022-09-12T23:53:45.356Z,94957.13
2022-09-12T23:56:11.961Z,94947.72
2022-09-12T23:58:38.681Z,94942.41
